Time;durP1;ratioP1;P1;durP2;ratioP2;P2;SDS_P1;SDS_P2;PMS_P1;PMS_P2;Temp;Humidity;BMP_temperature;BMP_pressure;BME280_temperature;BME280_humidity;BME280_pressure;Samples;Min_cycle;Max_cycle;Signal;HPM_P1;HPM_P2
2023/04/15 00:00:34;;;;;;;5.50;5.00;;;6.80;99.90;;;;;;6215028;23;20236;-79
2023/04/15 00:03:01;;;;;;;5.63;5.03;;;6.80;99.90;;;;;;6212323;23;20673;-79
2023/04/15 00:05:28;;;;;;;6.73;5.30;;;6.80;99.90;;;;;;6213414;23;20273;-80
2023/04/15 00:07:54;;;;;;;5.83;5.33;;;6.80;99.90;;;;;;6212854;23;20170;-80
2023/04/15 00:10:19;;;;;;;6.17;5.27;;;6.80;99.90;;;;;;6214371;23;20179;-80
2023/04/15 00:12:45;;;;;;;5.93;5.30;;;6.80;99.90;;;;;;6214079;23;20165;-80
2023/04/15 00:15:11;;;;;;;5.40;4.90;;;6.80;99.90;;;;;;6212325;23;20162;-79
2023/04/15 00:17:38;;;;;;;5.73;5.23;;;6.80;99.90;;;;;;6212792;23;20177;-80
2023/04/15 00:20:05;;;;;;;5.60;5.10;;;6.80;99.90;;;;;;6214191;23;20193;-82
2023/04/15 00:22:31;;;;;;;5.37;4.83;;;6.90;99.90;;;;;;6214422;23;20237;-81
2023/04/15 00:24:57;;;;;;;6.20;5.53;;;6.80;99.90;;;;;;6215590;23;20200;-80
2023/04/15 00:27:22;;;;;;;6.47;5.77;;;6.80;99.90;;;;;;6214287;23;20154;-78
2023/04/15 00:29:48;;;;;;;7.23;5.63;;;6.80;99.90;;;;;;6212730;23;20653;-80
2023/04/15 00:32:14;;;;;;;6.17;5.57;;;6.80;99.90;;;;;;6211913;23;20154;-79
2023/04/15 00:34:40;;;;;;;6.30;5.70;;;6.80;99.90;;;;;;6213012;23;20150;-80
2023/04/15 00:37:06;;;;;;;6.47;5.80;;;6.80;99.90;;;;;;6212216;23;20166;-81
2023/04/15 00:39:31;;;;;;;5.67;5.13;;;6.90;99.90;;;;;;6213101;23;20967;-80
2023/04/15 00:41:57;;;;;;;6.07;5.47;;;6.90;1.00;;;;;;6211629;23;20166;-79
2023/04/15 00:44:22;;;;;;;6.17;5.57;;;6.90;1.00;;;;;;6214164;23;20174;-79
2023/04/15 00:46:50;;;;;;;7.20;5.57;;;6.80;1.00;;;;;;6213104;23;20154;-81
2023/04/15 00:49:17;;;;;;;7.43;6.10;;;6.80;1.00;;;;;;6212666;23;20504;-79
2023/04/15 00:51:43;;;;;;;6.97;5.80;;;6.90;1.00;;;;;;6211559;23;20179;-80
2023/04/15 00:54:09;;;;;;;6.00;5.50;;;6.80;1.00;;;;;;6211745;23;20257;-80
2023/04/15 00:56:37;;;;;;;5.97;5.37;;;6.80;1.00;;;;;;6211548;23;20189;-80
2023/04/15 00:59:03;;;;;;;6.93;5.90;;;6.80;1.00;;;;;;6209694;23;20166;-81
2023/04/15 01:01:28;;;;;;;7.10;6.30;;;6.90;1.00;;;;;;6209720;23;20174;-80
2023/04/15 01:03:57;;;;;;;6.80;6.20;;;6.90;1.00;;;;;;6208632;23;20208;-80
2023/04/15 01:06:23;;;;;;;6.33;5.73;;;6.90;1.00;;;;;;6205772;23;20205;-81
2023/04/15 01:08:49;;;;;;;7.20;6.60;;;6.90;1.00;;;;;;6211412;23;20186;-81
2023/04/15 01:11:16;;;;;;;6.90;6.30;;;6.90;1.00;;;;;;6213927;23;20186;-80
2023/04/15 01:13:42;;;;;;;6.93;6.23;;;6.90;1.00;;;;;;6214150;23;20151;-80
2023/04/15 01:16:08;;;;;;;7.10;6.27;;;6.90;1.00;;;;;;6214277;23;20154;-80
2023/04/15 01:18:36;;;;;;;6.70;6.10;;;6.80;1.00;;;;;;6214029;23;20181;-80
2023/04/15 01:21:03;;;;;;;6.90;6.20;;;6.90;3.40;;;;;;6214281;23;20190;-81
2023/04/15 01:23:29;;;;;;;6.40;5.80;;;6.90;24.10;;;;;;6214174;23;20556;-80
2023/04/15 01:25:55;;;;;;;8.03;7.20;;;6.80;98.10;;;;;;6214056;23;20172;-80
2023/04/15 01:28:21;;;;;;;7.30;6.57;;;6.80;99.90;;;;;;6214098;23;20150;-81
2023/04/15 01:30:47;;;;;;;7.13;6.47;;;6.90;99.90;;;;;;6213098;23;20859;-80
2023/04/15 01:33:12;;;;;;;7.87;7.07;;;6.90;99.90;;;;;;6214383;23;20220;-81
2023/04/15 01:35:38;;;;;;;8.67;7.10;;;6.80;99.90;;;;;;6212949;23;20155;-79
2023/04/15 01:38:10;;;;;;;9.87;7.50;;;6.80;99.90;;;;;;6214269;23;20177;-82
2023/04/15 01:40:35;;;;;;;8.27;7.30;;;6.90;1.00;;;;;;6213937;23;20173;-82
2023/04/15 01:43:02;;;;;;;8.67;7.23;;;6.80;1.00;;;;;;6213231;23;20162;-81
2023/04/15 01:45:28;;;;;;;7.90;7.10;;;6.90;1.00;;;;;;6214899;23;20174;-80
2023/04/15 01:47:54;;;;;;;10.27;8.33;;;6.90;1.00;;;;;;6214507;23;20158;-81
2023/04/15 01:50:20;;;;;;;8.13;7.30;;;6.90;1.00;;;;;;6214309;23;20174;-79
2023/04/15 01:52:46;;;;;;;8.67;7.77;;;6.90;1.00;;;;;;6214362;23;20158;-80
2023/04/15 01:55:12;;;;;;;9.60;8.50;;;6.90;1.00;;;;;;6213882;23;20162;-78
2023/04/15 01:57:38;;;;;;;8.87;7.97;;;7.00;1.00;;;;;;6214196;23;20185;-81
2023/04/15 02:00:04;;;;;;;9.20;8.17;;;8.10;1.00;;;;;;6213546;23;20221;-80
2023/04/15 02:02:29;;;;;;;11.23;8.73;;;7.00;99.90;;;;;;6212945;23;20166;-81
2023/04/15 02:04:55;;;;;;;10.47;9.40;;;6.90;99.90;;;;;;6213750;23;20640;-81
2023/04/15 02:07:21;;;;;;;10.00;8.20;;;6.90;99.90;;;;;;6214680;23;20150;-81
2023/04/15 02:09:46;;;;;;;9.60;8.53;;;7.00;99.90;;;;;;6214024;23;20157;-80
2023/04/15 02:12:12;;;;;;;10.37;8.70;;;7.00;99.90;;;;;;6212985;23;20232;-79
2023/04/15 02:14:38;;;;;;;11.37;9.17;;;7.00;99.90;;;;;;6212378;23;20165;-81
2023/04/15 02:17:07;;;;;;;11.07;9.43;;;7.00;1.00;;;;;;6214785;23;20154;-81
2023/04/15 02:19:33;;;;;;;10.77;9.67;;;7.00;1.00;;;;;;6213758;23;20186;-80
2023/04/15 02:22:00;;;;;;;10.90;9.80;;;6.90;99.90;;;;;;6213973;23;20181;-81
2023/04/15 02:24:26;;;;;;;11.40;10.00;;;6.80;1.00;;;;;;6212136;23;20197;-82
2023/04/15 02:26:52;;;;;;;12.37;10.23;;;6.80;1.00;;;;;;6214271;23;20146;-81
2023/04/15 02:29:17;;;;;;;13.47;10.87;;;6.80;1.00;;;;;;6212621;23;20180;-79
2023/04/15 02:31:43;;;;;;;11.40;9.60;;;6.80;1.00;;;;;;6214256;23;20174;-78
2023/04/15 02:34:09;;;;;;;11.67;10.47;;;6.80;1.00;;;;;;6214119;23;20221;-79
2023/04/15 02:36:35;;;;;;;13.90;10.53;;;6.70;99.90;;;;;;6213659;23;20154;-81
2023/04/15 02:39:00;;;;;;;12.23;10.10;;;6.70;99.90;;;;;;6214174;23;20184;-80
2023/04/15 02:41:27;;;;;;;11.70;10.33;;;6.70;1.00;;;;;;6211975;23;20220;-81
2023/04/15 02:43:53;;;;;;;13.03;10.87;;;6.70;1.00;;;;;;6214917;23;20656;-81
2023/04/15 02:46:20;;;;;;;13.60;11.27;;;6.70;1.00;;;;;;6213800;23;20150;-81
2023/04/15 02:48:46;;;;;;;13.23;11.83;;;6.70;99.90;;;;;;6213013;23;20602;-79
2023/04/15 02:51:18;;;;;;;12.67;11.37;;;6.60;1.00;;;;;;6213759;23;20170;-81
2023/04/15 02:53:44;;;;;;;17.23;12.43;;;6.60;1.00;;;;;;6214372;23;20161;-79
2023/04/15 02:56:10;;;;;;;15.30;11.93;;;6.60;99.90;;;;;;6213153;23;20241;-80
2023/04/15 02:58:36;;;;;;;13.50;11.93;;;6.50;1.00;;;;;;6214976;23;20232;-82
2023/04/15 03:01:02;;;;;;;15.30;11.70;;;6.60;1.00;;;;;;6214639;23;20618;-80
2023/04/15 03:03:27;;;;;;;14.87;12.57;;;6.60;1.00;;;;;;6215197;23;20169;-80
2023/04/15 03:05:53;;;;;;;13.17;11.37;;;6.50;1.00;;;;;;6214941;23;20213;-78
2023/04/15 03:08:20;;;;;;;14.33;11.47;;;6.50;99.90;;;;;;6212516;23;20186;-78
2023/04/15 03:10:46;;;;;;;15.53;12.43;;;6.40;1.00;;;;;;6214530;23;20680;-80
2023/04/15 03:13:12;;;;;;;16.03;12.83;;;6.50;1.00;;;;;;6212447;23;20158;-81
2023/04/15 03:15:37;;;;;;;12.20;10.90;;;6.50;1.00;;;;;;6213590;23;20224;-81
2023/04/15 03:18:03;;;;;;;13.37;11.43;;;6.60;1.00;;;;;;6212051;23;20244;-79
2023/04/15 03:20:29;;;;;;;15.33;12.40;;;6.50;1.00;;;;;;6215284;23;20176;-81
2023/04/15 03:22:54;;;;;;;14.20;12.53;;;6.50;1.00;;;;;;6215250;23;20150;-81
2023/04/15 03:25:20;;;;;;;15.60;13.03;;;6.50;99.90;;;;;;6214622;23;20499;-80
2023/04/15 03:27:46;;;;;;;14.50;12.37;;;6.50;1.00;;;;;;6214446;23;20270;-81
2023/04/15 03:30:12;;;;;;;16.97;12.63;;;6.50;1.00;;;;;;6212786;23;20189;-81
2023/04/15 03:32:38;;;;;;;13.63;11.80;;;6.50;99.90;;;;;;6215048;23;20181;-82
2023/04/15 03:35:03;;;;;;;16.27;13.13;;;6.50;99.90;;;;;;6215039;23;20154;-81
2023/04/15 03:37:29;;;;;;;16.63;13.53;;;6.60;99.90;;;;;;6214356;23;20594;-80
2023/04/15 03:39:55;;;;;;;15.93;13.40;;;6.50;99.90;;;;;;6211793;23;20181;-81
2023/04/15 03:42:21;;;;;;;17.23;13.47;;;6.60;99.90;;;;;;6213217;23;20159;-80
2023/04/15 03:44:46;;;;;;;16.40;13.30;;;6.60;1.00;;;;;;6212345;23;20763;-80
2023/04/15 03:47:12;;;;;;;17.83;14.03;;;6.50;1.00;;;;;;6214768;23;20158;-79
2023/04/15 03:49:37;;;;;;;14.90;12.33;;;5.70;1.00;;;;;;6214941;23;20375;-81
2023/04/15 03:52:03;;;;;;;17.97;13.50;;;6.50;99.90;;;;;;6216571;23;20498;-79
2023/04/15 03:54:29;;;;;;;15.90;12.33;;;6.50;99.90;;;;;;6215564;23;20210;-81
2023/04/15 03:56:55;;;;;;;15.70;12.97;;;6.50;99.90;;;;;;6213596;23;20162;-79
2023/04/15 03:59:21;;;;;;;17.27;13.97;;;6.50;1.00;;;;;;6212884;23;20161;-80
2023/04/15 04:01:46;;;;;;;18.93;13.50;;;6.50;1.00;;;;;;6213651;23;20181;-78
2023/04/15 04:04:12;;;;;;;16.33;13.00;;;6.50;1.00;;;;;;6211845;23;20186;-79
2023/04/15 04:06:38;;;;;;;19.43;13.87;;;6.60;1.00;;;;;;6211510;23;20158;-79
2023/04/15 04:09:04;;;;;;;16.20;13.30;;;6.50;1.00;;;;;;6209858;23;20151;-80
2023/04/15 04:11:29;;;;;;;20.10;14.00;;;6.40;51.00;;;;;;6206521;23;20186;-79
2023/04/15 04:13:55;;;;;;;18.53;13.23;;;6.50;99.90;;;;;;6209510;23;20146;-79
2023/04/15 04:16:20;;;;;;;19.03;13.43;;;6.40;99.90;;;;;;6216529;23;20162;-79
2023/04/15 04:18:46;;;;;;;17.27;13.27;;;6.40;99.90;;;;;;6216623;23;20158;-80
2023/04/15 04:21:12;;;;;;;21.13;14.10;;;6.50;1.00;;;;;;6217119;23;20305;-79
2023/04/15 04:23:37;;;;;;;18.37;13.93;;;6.40;1.00;;;;;;6214679;23;20280;-80
2023/04/15 04:26:03;;;;;;;20.57;13.57;;;6.40;1.00;;;;;;6216746;23;20225;-80
2023/04/15 04:28:28;;;;;;;17.43;12.73;;;6.50;1.00;;;;;;6214298;23;20158;-79
2023/04/15 04:30:55;;;;;;;16.03;12.60;;;6.50;1.00;;;;;;6215892;23;20170;-79
2023/04/15 04:33:20;;;;;;;17.80;12.93;;;6.50;1.00;;;;;;6216936;23;20493;-81
2023/04/15 04:35:46;;;;;;;18.37;12.93;;;6.50;1.00;;;;;;6217208;23;20150;-80
2023/04/15 04:38:11;;;;;;;16.60;12.60;;;6.50;1.00;;;;;;6215041;23;20185;-81
2023/04/15 04:40:37;;;;;;;17.07;12.23;;;6.50;1.00;;;;;;6215805;23;20201;-80
2023/04/15 04:43:03;;;;;;;16.20;12.30;;;6.50;5.20;;;;;;6214562;23;20160;-79
2023/04/15 04:45:28;;;;;;;16.27;12.63;;;6.60;70.70;;;;;;6215568;23;20183;-80
2023/04/15 04:47:54;;;;;;;15.97;11.77;;;6.60;25.80;;;;;;6216586;23;20150;-80
2023/04/15 04:50:19;;;;;;;18.60;12.67;;;7.20;22.20;;;;;;6215021;23;20178;-80
2023/04/15 04:52:45;;;;;;;20.10;13.43;;;6.60;6.00;;;;;;6215654;23;20905;-80
2023/04/15 04:55:11;;;;;;;15.97;12.47;;;6.60;1.00;;;;;;6216488;23;20155;-78
2023/04/15 04:57:38;;;;;;;17.13;13.93;;;6.70;1.00;;;;;;6215305;23;20154;-80
2023/04/15 05:00:05;;;;;;;17.87;13.30;;;6.60;1.00;;;;;;6214248;23;20182;-79
2023/04/15 05:02:31;;;;;;;17.13;13.80;;;6.60;1.00;;;;;;6214918;23;20158;-81
2023/04/15 05:04:57;;;;;;;18.60;13.70;;;6.60;99.90;;;;;;6213638;23;20225;-80
2023/04/15 05:07:22;;;;;;;18.17;13.97;;;6.70;99.90;;;;;;6213329;23;20813;-80
2023/04/15 05:09:48;;;;;;;16.30;12.10;;;6.70;91.40;;;;;;6214460;23;20155;-80
2023/04/15 05:12:14;;;;;;;16.50;12.63;;;6.70;44.00;;;;;;6212815;23;20177;-78
2023/04/15 05:14:42;;;;;;;18.37;13.27;;;6.80;1.00;;;;;;6215510;23;20150;-80
2023/04/15 05:17:08;;;;;;;17.07;13.83;;;6.90;1.00;;;;;;6213084;23;20166;-80
2023/04/15 05:19:33;;;;;;;17.03;13.37;;;6.80;1.00;;;;;;6213634;23;20158;-79
2023/04/15 05:21:59;;;;;;;17.37;13.23;;;6.80;1.00;;;;;;6214479;23;20162;-80
2023/04/15 05:24:25;;;;;;;16.67;12.10;;;6.80;1.00;;;;;;6214589;23;20185;-78
2023/04/15 05:26:50;;;;;;;15.43;12.20;;;6.70;1.00;;;;;;6214233;23;20178;-80
2023/04/15 05:29:16;;;;;;;15.10;11.83;;;6.80;1.00;;;;;;6214346;23;20153;-80
2023/04/15 05:31:42;;;;;;;15.37;12.30;;;6.70;1.00;;;;;;6214081;23;20658;-79
2023/04/15 05:34:08;;;;;;;14.27;11.47;;;6.70;1.00;;;;;;6213993;23;20158;-80
2023/04/15 05:36:33;;;;;;;14.67;11.30;;;6.70;1.00;;;;;;6212249;23;20195;-80
2023/04/15 05:38:59;;;;;;;14.30;11.30;;;6.70;1.00;;;;;;6212465;23;20654;-80
2023/04/15 05:41:25;;;;;;;14.07;11.60;;;6.60;1.00;;;;;;6213250;23;20205;-80
2023/04/15 05:43:50;;;;;;;14.73;12.10;;;6.50;99.90;;;;;;6212997;23;20517;-79
2023/04/15 05:46:16;;;;;;;17.17;12.70;;;6.50;99.90;;;;;;6213194;23;20158;-79
2023/04/15 05:48:42;;;;;;;15.87;12.07;;;6.50;99.90;;;;;;6213288;23;20154;-80
2023/04/15 05:51:08;;;;;;;15.87;11.90;;;6.50;1.00;;;;;;6213106;23;20568;-80
2023/04/15 05:53:33;;;;;;;15.97;11.93;;;6.50;1.00;;;;;;6213003;23;20147;-80
2023/04/15 05:55:59;;;;;;;14.27;11.60;;;6.60;1.00;;;;;;6212795;23;20150;-79
2023/04/15 05:58:25;;;;;;;14.83;11.27;;;6.50;1.00;;;;;;6211115;23;20174;-80
2023/04/15 06:00:51;;;;;;;15.90;12.00;;;6.50;1.00;;;;;;6211828;23;20618;-78
2023/04/15 06:03:17;;;;;;;15.17;12.50;;;6.60;1.00;;;;;;6213018;23;20173;-81
2023/04/15 06:05:43;;;;;;;16.03;12.07;;;6.70;1.00;;;;;;6212803;23;20154;-80
2023/04/15 06:08:09;;;;;;;15.20;11.37;;;6.70;1.00;;;;;;6212861;23;20173;-80
2023/04/15 06:10:35;;;;;;;14.93;11.90;;;7.90;1.00;;;;;;6212847;23;20650;-80
2023/04/15 06:13:02;;;;;;;13.90;11.47;;;6.70;99.90;;;;;;6212948;23;20561;-80
2023/04/15 06:15:28;;;;;;;15.03;11.30;;;6.80;99.90;;;;;;6209390;23;20159;-78
2023/04/15 06:17:54;;;;;;;13.43;10.87;;;6.80;99.90;;;;;;6208906;23;20154;-77
2023/04/15 06:20:19;;;;;;;13.17;11.03;;;6.90;99.90;;;;;;6209311;23;20201;-78
2023/04/15 06:22:45;;;;;;;13.40;11.10;;;6.90;99.90;;;;;;6211608;23;20150;-79
2023/04/15 06:25:11;;;;;;;13.63;11.57;;;6.90;99.90;;;;;;6211407;23;20166;-80
2023/04/15 06:27:36;;;;;;;13.53;10.97;;;6.70;99.90;;;;;;6210225;23;20154;-80
2023/04/15 06:30:03;;;;;;;18.47;14.17;;;6.70;99.90;;;;;;6211006;23;20213;-77
2023/04/15 06:32:28;;;;;;;14.87;12.03;;;6.80;99.90;;;;;;6209353;23;20158;-80
2023/04/15 06:34:54;;;;;;;14.23;11.63;;;6.80;99.90;;;;;;6212294;23;20154;-81
2023/04/15 06:37:19;;;;;;;14.10;12.20;;;6.80;99.90;;;;;;6212620;23;20154;-79
2023/04/15 06:39:46;;;;;;;14.20;12.07;;;6.80;99.90;;;;;;6211595;23;20163;-79
2023/04/15 06:42:11;;;;;;;14.57;12.20;;;6.80;99.90;;;;;;6212460;23;20157;-80
2023/04/15 06:44:37;;;;;;;17.73;13.77;;;6.90;99.90;;;;;;6210071;23;20581;-79
2023/04/15 06:47:03;;;;;;;12.03;9.40;;;6.80;99.90;;;;;;6209804;23;20164;-79
2023/04/15 06:49:28;;;;;;;12.87;11.40;;;6.80;99.90;;;;;;6209270;23;20240;-80
2023/04/15 06:51:54;;;;;;;13.57;11.70;;;6.80;99.90;;;;;;6210222;23;20177;-79
2023/04/15 06:54:20;;;;;;;13.60;11.90;;;6.90;99.90;;;;;;6210557;23;20597;-79
2023/04/15 06:56:46;;;;;;;12.20;9.97;;;7.00;99.90;;;;;;6210462;23;20567;-79
2023/04/15 06:59:13;;;;;;;11.33;10.00;;;7.00;99.90;;;;;;6210357;23;20364;-79
2023/04/15 07:01:40;;;;;;;10.23;8.73;;;7.10;99.90;;;;;;6212092;23;20265;-78
2023/04/15 07:04:05;;;;;;;9.77;8.77;;;7.10;99.90;;;;;;6210570;23;20208;-80
2023/04/15 07:06:31;;;;;;;10.03;8.93;;;7.10;99.90;;;;;;6211168;23;20159;-78
2023/04/15 07:08:57;;;;;;;9.10;8.20;;;7.10;99.90;;;;;;6211045;23;20157;-79
2023/04/15 07:11:24;;;;;;;8.97;8.03;;;7.10;61.00;;;;;;6210703;23;20247;-79
2023/04/15 07:13:50;;;;;;;8.60;7.40;;;7.00;99.90;;;;;;6208014;23;20483;-80
2023/04/15 07:16:16;;;;;;;10.47;8.77;;;6.90;99.90;;;;;;6206231;23;20168;-79
2023/04/15 07:18:42;;;;;;;9.50;8.43;;;7.00;99.90;;;;;;6203462;23;20192;-79
2023/04/15 07:21:08;;;;;;;8.60;7.70;;;7.00;99.90;;;;;;6209025;23;20178;-79
2023/04/15 07:23:34;;;;;;;8.97;7.50;;;7.10;1.00;;;;;;6210901;23;20143;-79
2023/04/15 07:26:00;;;;;;;9.90;8.13;;;7.00;99.90;;;;;;6211892;23;20245;-80
2023/04/15 07:28:26;;;;;;;8.60;7.63;;;6.90;1.00;;;;;;6214912;23;20170;-80
2023/04/15 07:30:51;;;;;;;9.87;8.07;;;7.00;1.00;;;;;;6215283;23;20174;-81
2023/04/15 07:33:17;;;;;;;8.73;7.70;;;7.00;1.00;;;;;;6214918;23;20147;-80
2023/04/15 07:35:44;;;;;;;8.50;6.83;;;7.00;1.00;;;;;;6215738;23;20139;-81
2023/04/15 07:38:11;;;;;;;8.43;7.20;;;7.10;1.00;;;;;;6216279;23;20455;-79
2023/04/15 07:40:38;;;;;;;7.77;6.90;;;7.10;1.00;;;;;;6211246;23;20193;-79
2023/04/15 07:43:04;;;;;;;7.10;6.40;;;7.10;1.00;;;;;;6209006;23;20201;-80
2023/04/15 07:45:30;;;;;;;7.00;6.07;;;7.10;1.00;;;;;;6210951;23;20261;-80
2023/04/15 07:47:56;;;;;;;7.77;6.67;;;7.10;1.00;;;;;;6210308;23;20157;-80
2023/04/15 07:50:22;;;;;;;7.23;6.30;;;7.10;1.00;;;;;;6210683;23;20178;-79
2023/04/15 07:52:50;;;;;;;6.77;6.07;;;7.10;1.00;;;;;;6205740;23;20153;-77
2023/04/15 07:55:18;;;;;;;6.17;5.57;;;7.10;1.00;;;;;;6208961;23;20142;-80
2023/04/15 07:57:46;;;;;;;6.90;5.83;;;7.10;1.00;;;;;;6206163;23;20185;-80
2023/04/15 08:00:12;;;;;;;6.27;5.67;;;7.10;1.00;;;;;;6208638;23;20182;-78
2023/04/15 08:02:37;;;;;;;6.67;5.70;;;7.00;1.00;;;;;;6209288;23;20171;-78
2023/04/15 08:05:03;;;;;;;6.13;5.53;;;7.00;1.00;;;;;;6208858;23;20170;-78
2023/04/15 08:07:30;;;;;;;7.17;6.20;;;7.00;1.00;;;;;;6211099;23;20135;-81
2023/04/15 08:09:55;;;;;;;6.87;6.17;;;7.10;1.00;;;;;;6209738;23;20244;-81
2023/04/15 08:12:21;;;;;;;7.63;6.83;;;7.00;1.00;;;;;;6212107;23;20602;-80
2023/04/15 08:14:47;;;;;;;8.40;7.60;;;7.10;1.00;;;;;;6211236;23;20249;-80
2023/04/15 08:17:15;;;;;;;7.73;6.70;;;7.20;1.00;;;;;;6207740;23;20146;-79
2023/04/15 08:19:41;;;;;;;6.53;5.83;;;7.30;1.00;;;;;;6206791;23;20162;-79
2023/04/15 08:22:07;;;;;;;7.53;6.83;;;7.20;1.00;;;;;;6208531;23;20217;-79
2023/04/15 08:24:33;;;;;;;8.17;7.30;;;7.30;1.00;;;;;;6209026;23;20245;-80
2023/04/15 08:27:00;;;;;;;8.63;7.13;;;7.20;1.00;;;;;;6206609;23;20670;-79
2023/04/15 08:29:26;;;;;;;8.37;7.33;;;7.20;1.00;;;;;;6207148;23;20134;-78
2023/04/15 08:31:52;;;;;;;8.33;7.47;;;7.20;1.00;;;;;;6208326;23;20208;-81
2023/04/15 08:34:18;;;;;;;8.70;7.47;;;7.30;1.00;;;;;;6209454;23;20155;-80
2023/04/15 08:36:44;;;;;;;9.20;7.57;;;7.20;1.00;;;;;;6203530;23;20178;-80
2023/04/15 08:39:10;;;;;;;8.23;7.00;;;7.20;1.00;;;;;;6208505;23;20166;-79
2023/04/15 08:41:46;;;;;;;8.50;7.53;;;7.30;1.00;;;;;;6206904;23;20228;-78
2023/04/15 08:44:13;;;;;;;8.80;7.30;;;7.30;1.00;;;;;;6206860;23;20212;-80
2023/04/15 08:46:41;;;;;;;25.10;18.53;;;7.30;1.00;;;;;;6208798;23;20230;-78
2023/04/15 08:49:11;;;;;;;13.33;10.30;;;7.30;1.00;;;;;;6208876;23;20177;-80
2023/04/15 08:51:37;;;;;;;10.43;8.67;;;7.40;1.00;;;;;;6208249;23;20171;-79
2023/04/15 08:54:03;;;;;;;10.23;8.93;;;7.30;1.00;;;;;;6204060;23;20172;-78
2023/04/15 08:56:34;;;;;;;11.37;8.87;;;7.40;1.00;;;;;;6207023;23;20146;-80
2023/04/15 08:59:00;;;;;;;11.80;9.73;;;7.40;1.00;;;;;;6207716;23;20241;-80
2023/04/15 09:01:26;;;;;;;12.30;9.53;;;7.40;1.00;;;;;;6205848;23;20182;-79
2023/04/15 09:03:55;;;;;;;12.80;9.33;;;7.50;1.00;;;;;;6208382;23;20297;-79
2023/04/15 09:06:22;;;;;;;10.93;9.20;;;7.50;1.00;;;;;;6207156;23;20598;-79
2023/04/15 09:08:49;;;;;;;13.17;10.97;;;7.50;1.00;;;;;;6207719;23;20154;-81
2023/04/15 09:11:16;;;;;;;13.43;10.20;;;7.60;1.00;;;;;;6207500;23;20190;-80
2023/04/15 09:13:42;;;;;;;13.23;10.60;;;7.60;1.00;;;;;;6208262;23;20525;-80
2023/04/15 09:16:08;;;;;;;13.80;10.53;;;7.70;1.00;;;;;;6205362;23;20293;-80
2023/04/15 09:18:36;;;;;;;14.57;11.63;;;7.90;1.00;;;;;;6206874;23;20181;-78
2023/04/15 09:21:07;;;;;;;14.43;11.33;;;7.90;1.00;;;;;;6207255;23;20224;-80
2023/04/15 09:23:34;;;;;;;15.63;12.53;;;7.80;1.00;;;;;;6205339;23;20181;-78
2023/04/15 09:26:01;;;;;;;16.37;12.93;;;7.80;1.00;;;;;;6206624;23;20155;-78
2023/04/15 09:28:27;;;;;;;16.47;12.17;;;7.80;1.00;;;;;;6207354;23;20576;-79
2023/04/15 09:30:59;;;;;;;18.70;13.43;;;7.90;1.00;;;;;;6207258;23;20197;-79
2023/04/15 09:33:27;;;;;;;16.57;13.53;;;7.80;1.00;;;;;;6207367;23;20151;-79
2023/04/15 09:35:58;;;;;;;19.20;14.80;;;7.90;1.00;;;;;;6204921;23;20169;-78
2023/04/15 09:38:23;;;;;;;22.27;16.73;;;7.90;1.00;;;;;;6206329;23;20151;-78
2023/04/15 09:40:49;;;;;;;20.90;16.37;;;7.90;1.00;;;;;;6207253;23;20459;-80
2023/04/15 09:43:16;;;;;;;21.97;16.17;;;8.00;1.00;;;;;;6206558;23;20150;-80
2023/04/15 09:45:53;;;;;;;22.47;16.43;;;8.10;1.00;;;;;;6204020;23;20352;-80
2023/04/15 09:48:27;;;;;;;23.10;16.47;;;8.10;1.00;;;;;;6205724;23;20161;-79
2023/04/15 09:50:56;;;;;;;23.00;16.53;;;8.00;1.00;;;;;;6205673;23;20192;-78
2023/04/15 09:53:24;;;;;;;22.77;16.57;;;7.90;1.00;;;;;;6203992;23;20161;-78
2023/04/15 09:55:51;;;;;;;27.20;18.00;;;7.90;1.00;;;;;;6204209;23;20492;-76
2023/04/15 09:58:28;;;;;;;26.90;18.80;;;7.90;1.00;;;;;;6205476;23;20161;-79
2023/04/15 10:00:55;;;;;;;35.27;24.10;;;8.00;1.00;;;;;;6203924;23;20528;-78
2023/04/15 10:03:26;;;;;;;34.47;23.63;;;7.90;1.00;;;;;;6205881;23;20646;-81
2023/04/15 10:05:54;;;;;;;37.83;24.77;;;8.00;1.00;;;;;;6204834;23;20154;-79
2023/04/15 10:08:24;;;;;;;45.23;31.23;;;8.00;1.00;;;;;;6203752;23;20143;-79
2023/04/15 10:10:53;;;;;;;37.97;25.00;;;8.00;1.00;;;;;;6201682;23;20190;-82
2023/04/15 10:13:24;;;;;;;34.47;23.30;;;8.00;1.00;;;;;;6204280;23;20173;-79
2023/04/15 10:15:54;;;;;;;40.27;27.63;;;8.10;1.00;;;;;;6205411;23;20946;-79
2023/04/15 10:18:22;;;;;;;35.93;24.57;;;8.10;1.00;;;;;;6204091;23;20154;-79
2023/04/15 10:20:49;;;;;;;37.37;25.20;;;8.20;1.00;;;;;;6204031;23;20185;-80
2023/04/15 10:23:16;;;;;;;36.37;24.67;;;8.10;1.00;;;;;;6202554;23;20849;-79
2023/04/15 10:25:42;;;;;;;39.30;26.30;;;8.10;1.00;;;;;;6201359;23;20224;-79
2023/04/15 10:28:08;;;;;;;42.47;27.83;;;8.10;1.00;;;;;;6205821;23;20498;-80
2023/04/15 10:30:35;;;;;;;43.60;31.33;;;8.10;1.00;;;;;;6207761;23;20614;-80
2023/04/15 10:33:03;;;;;;;49.53;34.50;;;8.20;1.00;;;;;;6204542;23;20603;-80
2023/04/15 10:35:30;;;;;;;40.27;28.40;;;8.30;1.00;;;;;;6205716;23;20197;-80
2023/04/15 10:37:56;;;;;;;40.50;27.60;;;8.30;1.00;;;;;;6205745;23;20162;-79
2023/04/15 10:40:32;;;;;;;44.13;28.77;;;8.30;1.00;;;;;;6206416;23;20179;-77
2023/04/15 10:43:02;;;;;;;38.93;26.47;;;8.30;1.00;;;;;;6207887;23;20145;-80
2023/04/15 10:45:32;;;;;;;40.43;26.93;;;8.30;1.00;;;;;;6204711;23;20178;-79
2023/04/15 10:48:01;;;;;;;44.07;28.10;;;8.30;1.00;;;;;;6203760;23;20598;-80
2023/04/15 10:50:31;;;;;;;40.10;27.50;;;8.30;1.00;;;;;;6204094;23;20260;-79
2023/04/15 10:52:57;;;;;;;44.87;31.07;;;8.40;1.00;;;;;;6202682;23;20181;-78
2023/04/15 10:55:26;;;;;;;37.93;25.67;;;8.40;99.90;;;;;;6202566;23;20578;-79
2023/04/15 10:57:53;;;;;;;44.63;28.10;;;8.40;99.90;;;;;;6201032;23;20185;-77
2023/04/15 11:00:20;;;;;;;61.53;44.50;;;8.40;99.90;;;;;;6205641;23;20184;-78
2023/04/15 11:03:05;;;;;;;52.13;36.57;;;8.50;99.90;;;;;;6206825;23;20560;-79
2023/04/15 11:05:50;;;;;;;40.13;26.83;;;8.60;99.90;;;;;;6206048;23;20170;-79
2023/04/15 11:08:16;;;;;;;36.60;25.57;;;8.50;99.90;;;;;;6206652;23;20147;-79
2023/04/15 11:10:41;;;;;;;34.93;24.73;;;8.50;99.90;;;;;;6206153;23;20196;-80
2023/04/15 11:13:10;;;;;;;36.63;25.80;;;8.40;99.90;;;;;;6207555;23;20143;-79
2023/04/15 11:15:43;;;;;;;40.93;28.40;;;8.40;99.90;;;;;;6206558;23;20165;-78
2023/04/15 11:18:15;;;;;;;43.60;28.43;;;8.40;99.90;;;;;;6204921;23;20150;-79
2023/04/15 11:20:44;;;;;;;42.03;28.47;;;8.80;99.90;;;;;;6206233;23;20629;-79
2023/04/15 11:23:10;;;;;;;49.87;30.83;;;8.50;99.90;;;;;;6205720;23;20672;-79
2023/04/15 11:25:38;;;;;;;48.07;33.27;;;8.50;99.90;;;;;;6203351;23;20174;-79
2023/04/15 11:28:06;;;;;;;43.87;28.93;;;8.50;99.90;;;;;;6203958;23;20155;-79
2023/04/15 11:30:34;;;;;;;43.47;29.17;;;8.60;99.90;;;;;;6203403;23;20181;-80
2023/04/15 11:33:07;;;;;;;47.20;30.63;;;8.60;99.90;;;;;;6203819;23;20193;-79
2023/04/15 11:35:34;;;;;;;45.20;32.37;;;8.50;62.00;;;;;;6203216;23;20143;-79
2023/04/15 11:38:10;;;;;;;47.07;31.90;;;8.50;60.40;;;;;;6198886;23;20245;-79
2023/04/15 11:40:37;;;;;;;50.43;35.57;;;8.50;1.00;;;;;;6201833;23;20987;-79
2023/04/15 11:43:19;;;;;;;46.37;31.53;;;8.50;23.40;;;;;;6203584;23;20263;-79
2023/04/15 11:45:51;;;;;;;48.37;31.90;;;8.50;70.10;;;;;;6203597;23;20182;-78
2023/04/15 11:48:17;;;;;;;51.33;33.17;;;8.50;94.20;;;;;;6203554;23;20154;-80
2023/04/15 11:50:43;;;;;;;53.80;35.33;;;8.50;99.90;;;;;;6203551;23;20174;-80
2023/04/15 11:53:11;;;;;;;51.50;34.03;;;8.60;99.90;;;;;;6203608;23;20732;-80
2023/04/15 11:55:46;;;;;;;48.00;32.70;;;8.60;99.90;;;;;;6208034;23;20146;-78
2023/04/15 11:58:15;;;;;;;47.40;32.50;;;8.70;99.90;;;;;;6207763;23;20596;-78
2023/04/15 12:00:46;;;;;;;46.53;30.43;;;8.80;59.40;;;;;;6204856;23;20256;-80
2023/04/15 12:03:22;;;;;;;42.87;29.03;;;8.80;1.00;;;;;;6206488;23;20165;-78
2023/04/15 12:06:23;;;;;;;47.27;30.03;;;8.80;1.00;;;;;;6207541;23;20239;-79
2023/04/15 12:08:51;;;;;;;46.33;29.30;;;8.80;99.90;;;;;;6205579;23;20467;-78
2023/04/15 12:11:17;;;;;;;47.33;30.57;;;8.80;99.90;;;;;;6206649;23;20190;-79
2023/04/15 12:13:48;;;;;;;43.93;29.80;;;8.70;1.00;;;;;;6204829;23;20166;-80
2023/04/15 12:16:18;;;;;;;48.13;31.23;;;8.70;1.00;;;;;;6207411;23;20472;-80
2023/04/15 12:18:50;;;;;;;50.63;35.60;;;8.80;1.00;;;;;;6205109;23;20161;-80
2023/04/15 12:21:18;;;;;;;45.77;29.83;;;8.70;99.90;;;;;;6206931;23;20556;-79
2023/04/15 12:23:55;;;;;;;50.00;31.53;;;8.80;1.00;;;;;;6206811;23;20177;-79
2023/04/15 12:26:51;;;;;;;45.73;29.87;;;8.70;99.90;;;;;;6205289;23;20162;-79
2023/04/15 12:29:17;;;;;;;44.57;29.10;;;8.80;99.90;;;;;;6204171;23;20166;-79
2023/04/15 12:31:47;;;;;;;44.43;28.83;;;8.70;37.70;;;;;;6205176;23;20175;-80
2023/04/15 12:34:14;;;;;;;44.87;29.00;;;8.90;1.00;;;;;;6206166;23;20178;-79
2023/04/15 12:36:40;;;;;;;43.20;28.40;;;8.90;1.00;;;;;;6204116;23;20553;-79
2023/04/15 12:39:05;;;;;;;42.97;29.27;;;9.00;99.90;;;;;;6202140;23;20163;-78
2023/04/15 12:41:32;;;;;;;46.40;31.00;;;9.00;99.90;;;;;;6203562;23;20290;-81
2023/04/15 12:43:58;;;;;;;155.60;103.13;;;8.90;1.00;;;;;;6206686;23;20194;-79
2023/04/15 12:46:24;;;;;;;41.53;28.80;;;9.00;99.90;;;;;;6203302;23;20220;-78
2023/04/15 12:48:53;;;;;;;52.40;35.43;;;8.90;1.00;;;;;;6204767;23;20150;-79